Time;durP1;ratioP1;P1;durP2;ratioP2;P2;SDS_P1;SDS_P2;PMS_P1;PMS_P2;Temp;Humidity;BMP_temperature;BMP_pressure;BME280_temperature;BME280_humidity;BME280_pressure;Samples;Min_cycle;Max_cycle;Signal;HPM_P1;HPM_P2
2022/06/12 00:00:58;;;;;;;;;1.33;1.33;;;;;22.14;42.85;101843.84;2112489;27;48018;-62
2022/06/12 00:01:59;;;;;;;;;3.00;1.00;;;;;22.14;42.76;101847.44;2104297;28;47692;-60
2022/06/12 00:03:01;;;;;;;;;1.33;1.33;;;;;22.15;42.77;101851.00;2094743;28;47355;-60
2022/06/12 00:04:01;;;;;;;;;3.00;2.25;;;;;22.14;43.33;101851.97;2104582;27;48072;-61
2022/06/12 00:05:03;;;;;;;;;2.00;2.00;;;;;22.13;43.16;101851.09;2103069;28;47393;-61
2022/06/12 00:06:04;;;;;;;;;2.00;0.25;;;;;22.13;43.02;101853.78;2103338;27;47781;-61
2022/06/12 00:07:04;;;;;;;;;2.00;2.00;;;;;22.10;43.31;101845.81;2113322;27;47753;-61
2022/06/12 00:08:05;;;;;;;;;3.67;3.67;;;;;22.08;43.34;101845.03;2112124;27;48014;-61
2022/06/12 00:09:06;;;;;;;;;2.00;2.00;;;;;22.09;42.66;101854.00;2112266;27;48182;-61
2022/06/12 00:10:08;;;;;;;;;4.00;2.00;;;;;22.08;42.63;101850.44;2113495;27;47194;-62
2022/06/12 00:11:11;;;;;;;;;1.25;1.25;;;;;22.07;43.00;101851.38;2112147;27;47683;-61
2022/06/12 00:12:12;;;;;;;;;3.00;3.00;;;;;22.06;42.84;101851.47;2095234;28;47758;-61
2022/06/12 00:13:15;;;;;;;;;2.00;1.67;;;;;22.05;42.84;101850.56;2094356;28;47688;-61
2022/06/12 00:14:16;;;;;;;;;3.00;2.50;;;;;22.05;43.20;101847.88;2107750;27;48344;-60
2022/06/12 00:15:19;;;;;;;;;4.00;2.33;;;;;22.03;43.28;101853.34;2113446;27;48186;-62
2022/06/12 00:16:21;;;;;;;;;1.75;1.75;;;;;22.01;43.08;101849.84;2112092;27;46010;-61
2022/06/12 00:17:22;;;;;;;;;1.00;1.00;;;;;22.00;43.15;101849.94;2112417;27;48559;-60
2022/06/12 00:18:23;;;;;;;;;4.00;3.50;;;;;21.98;42.96;101844.63;2113320;27;47228;-61
2022/06/12 00:19:23;;;;;;;;;2.33;2.33;;;;;21.97;43.14;101842.84;2112354;27;47692;-62
2022/06/12 00:20:25;;;;;;;;;2.00;2.00;;;;;21.96;43.38;101843.78;2112138;27;47528;-62
2022/06/12 00:21:27;;;;;;;;;2.00;2.00;;;;;21.95;43.41;101844.75;2113404;27;47705;-62
2022/06/12 00:22:27;;;;;;;;;3.00;3.00;;;;;21.93;43.28;101843.97;2105732;27;47689;-62
2022/06/12 00:23:28;;;;;;;;;2.33;1.67;;;;;21.93;42.83;101843.09;2095880;28;48564;-61
2022/06/12 00:24:28;;;;;;;;;2.00;2.00;;;;;21.91;43.01;101847.69;2097656;28;47500;-61
2022/06/12 00:25:30;;;;;;;;;1.67;1.67;;;;;21.91;42.89;101845.00;2106751;27;47867;-61
2022/06/12 00:26:45;;;;;;;;;2.25;2.00;;;;;21.90;42.72;101841.41;2104843;28;46261;-61
2022/06/12 00:27:46;;;;;;;;;2.25;2.25;;;;;21.91;43.36;101842.28;2106315;27;47281;-60
2022/06/12 00:28:47;;;;;;;;;1.75;1.75;;;;;21.90;43.35;101843.25;2106626;27;47519;-59
2022/06/12 00:29:48;;;;;;;;;1.00;1.00;;;;;21.91;43.29;101836.88;2104736;28;47386;-60
2022/06/12 00:30:48;;;;;;;;;2.00;1.00;;;;;21.92;42.84;101844.03;2097556;28;47271;-61
2022/06/12 00:31:57;;;;;;;;;2.00;2.00;;;;;21.91;43.17;101851.28;2096254;28;47762;-62
2022/06/12 00:32:58;;;;;;;;;2.00;2.00;;;;;21.91;43.24;101845.00;2096384;28;48173;-61
2022/06/12 00:33:59;;;;;;;;;1.75;1.75;;;;;21.91;42.88;101845.00;2103595;27;48165;-61
2022/06/12 00:34:59;;;;;;;;;2.00;2.00;;;;;21.91;42.95;101855.81;2105230;27;47597;-61
2022/06/12 00:36:00;;;;;;;;;2.00;2.00;;;;;21.91;42.79;101851.28;2105218;27;47303;-62
2022/06/12 00:37:02;;;;;;;;;2.33;1.33;;;;;21.91;43.34;101856.69;2105644;27;47161;-61
2022/06/12 00:38:03;;;;;;;;;0.25;0.25;;;;;21.91;42.86;101856.69;2103266;28;47481;-62
2022/06/12 00:39:05;;;;;;;;;2.33;1.33;;;;;21.91;43.27;101853.09;2100355;28;47232;-62
2022/06/12 00:40:06;;;;;;;;;2.50;1.00;;;;;21.89;42.92;101853.19;2108980;27;45742;-61
2022/06/12 00:41:06;;;;;;;;;1.25;1.25;;;;;21.89;43.33;101855.00;2105490;27;47595;-61
2022/06/12 00:42:09;;;;;;;;;3.00;3.00;;;;;21.89;43.28;101855.88;2108399;27;48114;-60
2022/06/12 00:43:13;;;;;;;;;3.00;2.00;;;;;21.88;42.99;101855.97;2103544;27;47428;-61
2022/06/12 00:44:18;;;;;;;;;1.25;1.25;;;;;21.88;42.80;101856.84;2104240;27;48347;-61
2022/06/12 00:45:47;;;;;;;;;1.75;1.00;;;;;21.88;43.26;101859.53;2111398;27;47710;-61
2022/06/12 00:46:51;;;;;;;;;1.50;1.50;;;;;21.87;43.28;101852.41;2111851;27;47808;-60
2022/06/12 00:48:01;;;;;;;;;1.25;1.25;;;;;21.84;42.94;101848.94;2113398;27;48142;-61
2022/06/12 00:49:09;;;;;;;;;2.00;2.00;;;;;21.83;43.12;101852.59;2112223;27;47304;-61
2022/06/12 00:50:09;;;;;;;;;2.00;1.00;;;;;21.81;42.89;101847.28;2111519;27;48283;-60
2022/06/12 00:51:19;;;;;;;;;2.00;2.00;;;;;21.80;43.54;101855.47;2113276;27;48024;-61
2022/06/12 00:52:35;;;;;;;;;2.00;2.00;;;;;21.77;42.99;101845.69;2113036;27;48186;-60
2022/06/12 00:53:39;;;;;;;;;3.50;2.50;;;;;21.75;43.24;101853.00;2111690;27;47372;-59
2022/06/12 00:54:45;;;;;;;;;1.50;1.50;;;;;21.74;43.63;101857.53;2107767;27;47396;-60
2022/06/12 00:55:55;;;;;;;;;2.00;1.75;;;;;21.73;43.29;101850.41;2112802;27;47439;-61
2022/06/12 00:56:58;;;;;;;;;4.00;2.75;;;;;21.71;43.11;101852.28;2111650;27;47100;-61
2022/06/12 00:58:07;;;;;;;;;2.50;1.50;;;;;21.73;43.55;101860.31;2102327;28;48337;-61
2022/06/12 00:59:16;;;;;;;;;2.00;1.00;;;;;21.71;43.45;101849.56;2104957;27;48279;-60
2022/06/12 01:00:17;;;;;;;;;1.75;1.50;;;;;21.70;43.26;101850.53;2112005;27;47613;-61
2022/06/12 01:01:32;;;;;;;;;1.00;1.00;;;;;21.68;43.03;101846.16;2111843;27;47482;-61
2022/06/12 01:02:34;;;;;;;;;3.75;2.50;;;;;21.66;43.22;101846.22;2112465;27;47627;-61
2022/06/12 01:06:33;;;;;;;;;3.75;3.75;;;;;21.64;43.78;101844.56;2112917;27;48001;-61
2022/06/12 01:07:41;;;;;;;;;2.75;2.75;;;;;21.63;44.04;101849.09;2085480;28;47665;-62
2022/06/12 01:08:42;;;;;;;;;0.00;0.00;;;;;21.63;43.96;101846.41;2086649;28;47867;-62
2022/06/12 01:09:46;;;;;;;;;1.00;1.00;;;;;21.63;43.32;101850.94;2085648;28;47093;-62
2022/06/12 01:10:52;;;;;;;;;3.00;2.25;;;;;21.61;43.30;101848.31;2085635;28;48005;-61
2022/06/12 01:11:55;;;;;;;;;3.75;3.00;;;;;21.61;43.35;101851.00;2086617;28;48302;-62
2022/06/12 01:13:02;;;;;;;;;2.00;1.50;;;;;21.58;43.23;101851.13;2085322;28;47984;-60
2022/06/12 01:14:06;;;;;;;;;1.00;0.75;;;;;21.56;43.58;101847.63;2081210;28;47814;-61
2022/06/12 01:15:15;;;;;;;;;1.50;1.50;;;;;21.55;43.35;101845.03;2086827;28;46834;-61
2022/06/12 01:16:19;;;;;;;;;2.50;2.00;;;;;21.54;43.85;101851.38;2085555;28;47539;-61
2022/06/12 01:17:22;;;;;;;;;2.50;1.50;;;;;21.51;43.82;101852.41;2085591;28;47720;-61
2022/06/12 01:18:26;;;;;;;;;3.00;2.00;;;;;21.51;43.52;101851.53;2086708;28;47749;-61
2022/06/12 01:19:34;;;;;;;;;0.75;0.75;;;;;21.50;43.68;101853.34;2085825;28;48374;-62
2022/06/12 01:20:43;;;;;;;;;2.75;2.50;;;;;21.48;43.99;101855.25;2084865;28;47716;-62
2022/06/12 01:22:18;;;;;;;;;3.00;2.50;;;;;21.47;43.91;101858.91;2073702;28;47366;-61
2022/06/12 01:23:25;;;;;;;;;3.75;1.75;;;;;21.42;43.41;101844.75;2070504;28;47915;-61
2022/06/12 01:24:49;;;;;;;;;1.25;1.25;;;;;21.41;43.93;101857.38;2079434;28;47675;-63
2022/06/12 01:26:08;;;;;;;;;1.00;1.00;;;;;21.37;43.61;101855.78;2072160;28;47407;-60
2022/06/12 01:27:17;;;;;;;;;3.00;2.00;;;;;21.36;44.16;101848.63;2074797;28;47165;-61
2022/06/12 01:28:44;;;;;;;;;2.75;2.75;;;;;21.35;43.98;101855.00;2078301;28;47631;-61
2022/06/12 01:30:17;;;;;;;;;2.25;2.25;;;;;21.32;43.57;101862.34;2078646;28;47931;-61
2022/06/12 01:31:17;;;;;;;;;2.75;2.75;;;;;21.29;44.29;101857.97;2078363;28;48217;-61
2022/06/12 01:32:31;;;;;;;;;3.33;3.33;;;;;21.27;44.19;101853.59;2080549;28;47665;-62
2022/06/12 01:34:11;;;;;;;;;2.00;2.00;;;;;21.26;43.80;101854.56;2080445;28;47886;-62
2022/06/12 01:35:34;;;;;;;;;2.25;1.75;;;;;21.23;44.30;101858.25;2080394;28;47643;-61
2022/06/12 01:37:15;;;;;;;;;3.75;3.75;;;;;21.20;44.27;101855.66;2062099;28;47788;-62
2022/06/12 01:38:20;;;;;;;;;3.75;2.00;;;;;21.19;43.92;101862.03;2053842;28;47805;-59
2022/06/12 01:39:30;;;;;;;;;3.00;1.75;;;;;21.17;44.52;101855.81;2068231;28;47851;-59
2022/06/12 01:40:41;;;;;;;;;2.50;2.50;;;;;21.14;44.06;101854.16;2066007;28;47702;-62
2022/06/12 01:41:51;;;;;;;;;4.25;3.00;;;;;21.13;44.09;101863.19;2068719;28;46144;-61
2022/06/12 01:43:13;;;;;;;;;5.75;4.00;;;;;21.11;44.55;101850.72;2069792;28;47647;-61
2022/06/12 01:44:22;;;;;;;;;3.00;3.00;;;;;21.10;44.03;101857.09;2069460;28;47908;-60
2022/06/12 01:45:38;;;;;;;;;3.00;3.00;;;;;21.11;44.67;101856.13;2076630;28;47978;-60
2022/06/12 01:46:41;;;;;;;;;3.00;3.00;;;;;21.11;44.10;101858.84;2085613;28;47517;-61
2022/06/12 01:48:03;;;;;;;;;2.00;2.00;;;;;21.10;44.40;101857.09;2086988;28;47632;-61
2022/06/12 01:49:20;;;;;;;;;1.50;1.50;;;;;21.08;44.17;101858.94;2086075;28;48192;-60
2022/06/12 01:50:37;;;;;;;;;2.75;2.00;;;;;21.06;44.68;101855.47;2085535;28;47799;-60
2022/06/12 01:52:16;;;;;;;;;3.25;2.75;;;;;21.04;44.25;101857.34;2085507;28;46845;-61
2022/06/12 01:53:37;;;;;;;;;6.50;5.00;;;;;21.00;44.59;101847.66;2055653;28;48368;-60
2022/06/12 01:54:49;;;;;;;;;5.00;3.75;;;;;20.98;44.68;101857.66;2048550;28;47531;-61
2022/06/12 01:56:19;;;;;;;;;4.00;4.00;;;;;20.96;44.74;101863.13;2053661;28;48065;-61
2022/06/12 01:57:53;;;;;;;;;4.00;4.00;;;;;20.96;44.22;101864.94;2053618;28;48167;-61
2022/06/12 01:59:09;;;;;;;;;3.75;3.75;;;;;20.95;44.42;101860.47;2021967;29;47750;-61
2022/06/12 02:00:15;;;;;;;;;4.25;3.50;;;;;20.93;45.10;101857.84;2028040;29;47279;-61
2022/06/12 02:01:47;;;;;;;;;3.75;3.75;;;;;20.92;44.54;101863.31;2028228;29;48267;-61
2022/06/12 02:02:57;;;;;;;;;2.50;2.00;;;;;20.89;44.90;101867.06;2028820;29;48372;-61
2022/06/12 02:04:16;;;;;;;;;1.25;1.00;;;;;20.88;44.41;101861.72;2029701;29;47556;-61
2022/06/12 02:05:19;;;;;;;;;2.00;1.00;;;;;20.85;44.83;101862.75;2029908;29;48182;-62
2022/06/12 02:06:36;;;;;;;;;1.25;1.25;;;;;20.83;44.57;101867.31;2028723;29;48328;-62
2022/06/12 02:07:42;;;;;;;;;3.25;3.25;;;;;20.81;45.11;101858.44;2028588;29;47031;-60
2022/06/12 02:09:13;;;;;;;;;1.25;1.25;;;;;20.78;44.72;101862.16;2029537;29;47361;-62
2022/06/12 02:10:24;;;;;;;;;4.00;1.50;;;;;20.75;45.15;101856.91;2029809;29;47995;-63
2022/06/12 02:13:12;;;;;;;;;2.00;2.00;;;;;20.72;45.17;101865.16;2028646;29;47358;-64
2022/06/12 02:14:19;;;;;;;;;2.75;1.75;;;;;20.71;45.07;101859.78;2023210;29;47748;-63
2022/06/12 02:15:28;;;;;;;;;2.50;2.00;;;;;20.72;45.47;101867.84;2022937;29;47871;-63
2022/06/12 02:16:33;;;;;;;;;2.00;1.50;;;;;20.71;44.97;101868.78;2021824;29;48016;-63
2022/06/12 02:17:44;;;;;;;;;2.50;2.50;;;;;20.70;45.18;101863.44;2025613;29;47805;-63
2022/06/12 02:18:51;;;;;;;;;4.75;4.75;;;;;20.70;44.97;101866.13;2020885;29;47717;-62
2022/06/12 02:19:53;;;;;;;;;6.00;4.00;;;;;20.68;45.28;101868.03;2022990;29;47771;-63
2022/06/12 02:21:03;;;;;;;;;3.50;3.50;;;;;20.68;45.58;101870.72;2028726;29;48011;-63
2022/06/12 02:22:13;;;;;;;;;5.25;3.50;;;;;20.68;45.19;101868.91;2027894;29;47675;-62
2022/06/12 02:23:25;;;;;;;;;2.50;1.25;;;;;20.66;45.66;101860.00;2014133;29;47814;-63
2022/06/12 02:24:42;;;;;;;;;3.00;3.00;;;;;20.67;45.37;101866.28;2023661;29;47581;-63
2022/06/12 02:25:48;;;;;;;;;4.75;3.25;;;;;20.69;45.83;101869.78;2024484;29;48040;-64
2022/06/12 02:26:57;;;;;;;;;2.00;2.00;;;;;20.70;45.65;101863.44;2022430;29;47513;-62
2022/06/12 02:28:08;;;;;;;;;2.75;2.75;;;;;20.69;45.82;101865.25;2022426;29;47832;-63
2022/06/12 02:29:17;;;;;;;;;1.50;1.50;;;;;20.70;45.37;101867.00;2024213;29;47769;-64
2022/06/12 02:30:41;;;;;;;;;2.25;2.25;;;;;20.72;45.65;101861.56;2040326;28;47767;-62
2022/06/12 02:31:45;;;;;;;;;1.50;1.00;;;;;20.73;45.45;101869.59;2054022;28;47587;-62
2022/06/12 02:32:56;;;;;;;;;1.75;1.75;;;;;20.73;45.39;101866.03;2054615;28;47493;-62
2022/06/12 02:34:05;;;;;;;;;3.67;2.00;;;;;20.74;45.25;101865.94;2057299;28;46721;-63
2022/06/12 02:35:12;;;;;;;;;0.75;0.75;;;;;20.72;45.31;101870.53;2056839;28;47562;-61
2022/06/12 02:36:18;;;;;;;;;2.00;2.00;;;;;20.73;45.09;101866.91;2076793;28;47689;-60
2022/06/12 02:37:33;;;;;;;;;2.75;1.50;;;;;20.73;45.19;101864.19;2097810;28;48109;-62
2022/06/12 02:38:43;;;;;;;;;3.00;3.00;;;;;20.74;45.56;101865.06;2100503;27;47315;-61
2022/06/12 02:39:51;;;;;;;;;1.75;1.75;;;;;20.75;45.82;101864.13;2104493;27;46820;-61
2022/06/12 02:40:59;;;;;;;;;3.50;2.00;;;;;20.75;45.61;101867.69;2097495;28;48248;-61
2022/06/12 02:42:09;;;;;;;;;1.25;1.25;;;;;20.78;45.84;101866.66;2098921;28;47695;-59
2022/06/12 02:43:15;;;;;;;;;3.50;3.50;;;;;20.79;45.37;101863.91;2105495;27;47600;-61
2022/06/12 02:44:27;;;;;;;;;4.25;3.25;;;;;20.82;45.78;101874.53;2097180;28;48214;-62
2022/06/12 02:45:40;;;;;;;;;1.75;1.75;;;;;20.84;45.16;101871.81;2101568;28;47853;-62
2022/06/12 02:46:47;;;;;;;;;3.00;3.00;;;;;20.84;45.94;101869.09;2104212;27;47852;-61
2022/06/12 02:47:49;;;;;;;;;2.00;2.00;;;;;20.85;45.81;101868.16;2105422;27;48067;-62
2022/06/12 02:48:50;;;;;;;;;3.00;1.25;;;;;20.86;45.93;101870.78;2104504;27;47602;-62
2022/06/12 02:49:54;;;;;;;;;1.75;1.75;;;;;20.87;45.30;101868.94;2104427;27;47776;-62
2022/06/12 02:51:05;;;;;;;;;2.00;2.00;;;;;20.89;45.31;101866.19;2105565;27;47442;-61
2022/06/12 02:52:15;;;;;;;;;2.50;2.50;;;;;20.89;45.87;101872.44;2103841;28;48133;-60
2022/06/12 02:53:36;;;;;;;;;2.00;2.00;;;;;20.90;45.80;101867.94;2104137;28;48051;-61
2022/06/12 02:54:56;;;;;;;;;1.00;1.00;;;;;20.90;45.30;101867.94;2099781;27;47522;-61
2022/06/12 02:56:13;;;;;;;;;2.25;2.00;;;;;20.91;45.88;101872.38;2105435;27;47739;-61
2022/06/12 02:57:46;;;;;;;;;2.25;2.25;;;;;20.92;46.10;101868.72;2105211;27;47710;-61
2022/06/12 02:58:59;;;;;;;;;3.00;3.00;;;;;20.92;45.51;101864.19;2104880;28;47705;-61
2022/06/12 03:00:17;;;;;;;;;0.50;0.50;;;;;20.94;45.36;101861.44;2104314;27;48031;-61
2022/06/12 03:01:28;;;;;;;;;5.00;2.50;;;;;20.94;45.41;101873.09;2104516;27;47521;-60
2022/06/12 03:02:37;;;;;;;;;0.25;0.25;;;;;20.94;45.61;101874.91;2105547;27;47977;-62
2022/06/12 03:03:45;;;;;;;;;3.50;2.25;;;;;20.94;46.05;101873.09;2105302;28;47338;-63
2022/06/12 03:05:17;;;;;;;;;3.00;3.00;;;;;20.95;45.91;101872.16;2104367;27;48020;-63
2022/06/12 03:06:18;;;;;;;;;2.00;2.00;;;;;20.96;46.23;101873.03;2104630;27;48175;-62
2022/06/12 03:07:19;;;;;;;;;2.75;1.25;;;;;20.97;45.48;101864.00;2105452;27;47656;-63
2022/06/12 03:08:25;;;;;;;;;4.25;3.75;;;;;20.97;45.45;101861.31;2097281;27;47591;-63
2022/06/12 03:09:26;;;;;;;;;1.75;1.75;;;;;20.97;45.48;101858.63;2106902;27;47602;-63
2022/06/12 03:10:32;;;;;;;;;1.67;1.67;;;;;20.97;45.85;101858.63;2114062;27;48135;-63
2022/06/12 03:11:40;;;;;;;;;2.00;2.00;;;;;20.95;45.78;101864.06;2094900;28;48296;-62
2022/06/12 03:12:41;;;;;;;;;4.50;2.75;;;;;20.95;45.48;101861.34;2098338;27;47495;-63
2022/06/12 03:13:42;;;;;;;;;2.00;2.00;;;;;20.95;45.82;101864.06;2110234;27;46397;-63
2022/06/12 03:14:43;;;;;;;;;2.25;2.25;;;;;20.94;45.32;101867.69;2112063;27;48356;-63
2022/06/12 03:15:49;;;;;;;;;3.25;2.25;;;;;20.95;45.67;101865.88;2111512;27;48502;-63
2022/06/12 03:16:50;;;;;;;;;3.00;2.00;;;;;20.95;45.26;101865.88;2105507;28;47420;-62
2022/06/12 03:17:51;;;;;;;;;2.50;1.00;;;;;20.95;45.53;101863.19;2111237;27;47759;-62
2022/06/12 03:18:56;;;;;;;;;2.00;2.00;;;;;20.93;45.66;101863.25;2112850;27;48011;-63
2022/06/12 03:19:57;;;;;;;;;2.00;1.50;;;;;20.93;45.60;101859.69;2113681;27;47225;-63
2022/06/12 03:21:16;;;;;;;;;2.67;1.67;;;;;20.92;45.44;101863.31;2112929;27;47578;-63
2022/06/12 03:22:37;;;;;;;;;2.50;1.75;;;;;20.90;45.66;101868.81;2108189;27;47918;-63
2022/06/12 03:24:02;;;;;;;;;2.75;2.00;;;;;20.90;46.01;101865.22;2087471;28;48072;-63
2022/06/12 03:25:23;;;;;;;;;2.75;1.25;;;;;20.90;46.12;101871.50;2099403;28;48434;-63
2022/06/12 03:26:53;;;;;;;;;3.00;2.50;;;;;20.88;45.90;101872.53;2105239;28;47632;-63
2022/06/12 03:28:21;;;;;;;;;3.00;3.00;;;;;20.87;45.99;101866.25;2106120;27;47850;-62
2022/06/12 03:29:31;;;;;;;;;1.50;1.50;;;;;20.85;46.11;101869.03;2106851;27;47916;-62
2022/06/12 03:30:44;;;;;;;;;1.75;1.75;;;;;20.84;45.78;101867.28;2106643;27;48087;-62
2022/06/12 03:32:12;;;;;;;;;3.25;2.00;;;;;20.84;45.96;101866.41;2105792;27;48279;-63
2022/06/12 03:33:22;;;;;;;;;4.00;2.50;;;;;20.82;46.16;101863.75;2096712;28;47587;-62
2022/06/12 03:34:35;;;;;;;;;1.75;1.75;;;;;20.83;46.08;101864.63;2104577;28;47673;-63
2022/06/12 03:35:38;;;;;;;;;3.50;2.75;;;;;20.82;46.26;101865.56;2106832;27;48148;-62
2022/06/12 03:36:51;;;;;;;;;3.25;3.25;;;;;20.83;45.98;101864.63;2105187;27;47636;-64
2022/06/12 03:38:04;;;;;;;;;3.25;3.25;;;;;20.81;46.16;101864.69;2096822;28;47643;-63
2022/06/12 03:39:22;;;;;;;;;3.00;2.25;;;;;20.79;46.19;101858.50;2108483;27;47965;-64
2022/06/12 03:40:52;;;;;;;;;2.00;2.00;;;;;20.78;45.68;101861.28;2107892;27;47377;-63
2022/06/12 03:42:04;;;;;;;;;2.75;1.50;;;;;20.78;46.24;101861.28;2106254;27;48175;-62
2022/06/12 03:43:17;;;;;;;;;2.25;2.25;;;;;20.77;45.82;101865.78;2094440;28;47634;-61
2022/06/12 03:44:23;;;;;;;;;3.75;2.25;;;;;20.77;46.38;101860.41;2098992;27;47428;-62
2022/06/12 03:45:37;;;;;;;;;2.25;2.25;;;;;20.78;46.20;101866.66;2111281;27;48481;-61
2022/06/12 03:46:38;;;;;;;;;1.75;1.00;;;;;20.76;46.25;101869.44;2111598;27;46374;-63
2022/06/12 03:48:06;;;;;;;;;4.00;4.00;;;;;20.76;45.83;101861.34;2113248;27;47697;-61
2022/06/12 03:49:13;;;;;;;;;2.50;2.50;;;;;20.75;46.14;101862.28;2069848;28;47309;-63
2022/06/12 03:50:21;;;;;;;;;4.25;3.75;;;;;20.75;46.32;101864.13;2070433;28;47700;-61
2022/06/12 03:51:30;;;;;;;;;0.75;0.25;;;;;20.74;46.16;101863.25;2070703;28;48186;-62
2022/06/12 03:52:48;;;;;;;;;1.00;1.00;;;;;20.72;46.30;101865.16;2062359;28;47791;-62
2022/06/12 03:54:20;;;;;;;;;2.75;2.00;;;;;20.71;46.18;101870.56;2070667;28;47844;-63
2022/06/12 03:58:55;;;;;;;;;3.00;3.00;;;;;20.72;46.65;101869.66;2037716;28;47485;-62
2022/06/12 04:00:06;;;;;;;;;1.75;1.75;;;;;20.71;46.40;101859.78;2036941;28;47518;-63
2022/06/12 04:01:07;;;;;;;;;5.25;2.50;;;;;20.70;46.29;101867.00;2036794;28;46440;-61
2022/06/12 04:02:12;;;;;;;;;3.75;2.25;;;;;20.69;46.40;101862.56;2038474;28;47677;-62
2022/06/12 04:03:34;;;;;;;;;2.50;2.50;;;;;20.67;46.05;101866.28;2036757;28;48140;-62
2022/06/12 04:04:38;;;;;;;;;4.25;2.25;;;;;20.65;46.48;101860.09;2036839;28;47669;-62
2022/06/12 04:05:41;;;;;;;;;2.00;2.00;;;;;20.63;46.49;101861.97;2038657;28;47471;-62
2022/06/12 04:06:44;;;;;;;;;2.75;2.75;;;;;20.60;46.02;101857.59;2030652;28;48160;-62
2022/06/12 04:07:47;;;;;;;;;4.50;3.25;;;;;20.59;46.36;101855.84;2031765;28;47497;-61
2022/06/12 04:08:50;;;;;;;;;4.50;2.25;;;;;20.57;46.48;101853.19;2038517;28;47930;-61
2022/06/12 04:09:55;;;;;;;;;3.25;2.00;;;;;20.56;46.15;101851.44;2028615;29;48011;-60
2022/06/12 04:10:57;;;;;;;;;2.75;2.75;;;;;20.54;46.13;101847.94;2029129;28;48060;-63
2022/06/12 04:12:01;;;;;;;;;4.00;3.50;;;;;20.52;46.15;101840.88;2038299;28;48337;-60
2022/06/12 04:13:06;;;;;;;;;4.25;3.25;;;;;20.51;46.14;101850.81;2036052;28;48128;-60
2022/06/12 04:14:13;;;;;;;;;3.00;2.00;;;;;20.52;46.66;101854.38;2030932;28;47891;-60
2022/06/12 04:15:22;;;;;;;;;2.00;2.00;;;;;20.52;46.81;101855.25;2022795;29;48048;-60
2022/06/12 04:16:31;;;;;;;;;4.00;4.00;;;;;20.51;46.65;101850.81;2036494;28;47410;-62
2022/06/12 04:17:32;;;;;;;;;2.00;2.00;;;;;20.50;46.35;101858.97;2036535;28;47890;-61
2022/06/12 04:18:33;;;;;;;;;4.75;3.25;;;;;20.50;46.68;101861.66;2038593;28;48146;-61
2022/06/12 04:19:58;;;;;;;;;2.00;2.00;;;;;20.47;46.98;101859.09;2030664;28;47771;-61
2022/06/12 04:21:01;;;;;;;;;6.00;2.00;;;;;20.46;46.84;101857.34;2034303;28;47797;-60
2022/06/12 04:22:08;;;;;;;;;3.00;2.00;;;;;20.46;46.93;101855.53;2029000;29;47369;-60
2022/06/12 04:23:38;;;;;;;;;3.25;2.00;;;;;20.47;46.52;101851.00;2015659;29;47503;-61
2022/06/12 04:24:45;;;;;;;;;3.25;3.25;;;;;20.45;46.71;101853.75;2027330;29;47115;-60
2022/06/12 04:25:57;;;;;;;;;2.75;2.75;;;;;20.47;46.56;101865.38;2031270;28;47643;-60
2022/06/12 04:27:06;;;;;;;;;2.00;1.75;;;;;20.47;47.00;101859.09;2046695;28;47857;-60
2022/06/12 04:28:41;;;;;;;;;4.25;2.75;;;;;20.49;46.57;101868.00;2054284;28;47985;-59
2022/06/12 04:29:50;;;;;;;;;2.25;1.75;;;;;20.50;46.49;101858.97;2046336;28;47824;-61
2022/06/12 04:30:53;;;;;;;;;4.00;2.00;;;;;20.50;46.50;101867.94;2048247;28;47954;-60
2022/06/12 04:31:56;;;;;;;;;3.25;3.25;;;;;20.50;47.20;101867.94;2055463;28;47645;-59
2022/06/12 04:33:34;;;;;;;;;1.00;1.00;;;;;20.52;46.72;101865.16;2086857;27;47355;-61
2022/06/12 04:34:38;;;;;;;;;2.25;2.25;;;;;20.51;47.05;101869.69;2096343;28;47334;-61
2022/06/12 04:35:46;;;;;;;;;2.75;2.00;;;;;20.50;46.57;101862.53;2101871;27;47819;-61
2022/06/12 04:36:50;;;;;;;;;1.00;1.00;;;;;20.50;46.60;101867.06;2104768;27;48063;-61
2022/06/12 04:37:51;;;;;;;;;1.25;1.25;;;;;20.50;46.64;101870.63;2112555;27;47869;-61
2022/06/12 04:38:53;;;;;;;;;2.33;2.00;;;;;20.49;46.57;101874.25;2108301;27;47538;-62
2022/06/12 04:39:55;;;;;;;;;3.00;2.25;;;;;20.48;47.07;101877.03;2110576;27;47642;-63
2022/06/12 04:40:56;;;;;;;;;1.00;1.00;;;;;20.47;46.75;101872.59;2105903;27;47817;-61
2022/06/12 04:41:58;;;;;;;;;5.00;3.25;;;;;20.48;46.76;101868.94;2106781;27;48039;-62
2022/06/12 04:42:58;;;;;;;;;2.50;2.50;;;;;20.48;47.12;101869.81;2113180;27;47699;-63
2022/06/12 04:43:58;;;;;;;;;0.33;0.33;;;;;20.48;46.89;101869.81;2111697;27;47784;-62
2022/06/12 04:45:00;;;;;;;;;2.33;2.33;;;;;20.49;47.36;101868.00;2112427;27;47553;-61
2022/06/12 04:46:02;;;;;;;;;2.25;2.25;;;;;20.49;47.43;101866.19;2113315;27;47652;-62
2022/06/12 04:47:05;;;;;;;;;4.00;2.75;;;;;20.49;47.36;101868.00;2112422;27;48193;-62
2022/06/12 04:48:08;;;;;;;;;4.25;4.25;;;;;20.50;47.51;101867.06;2112532;27;47778;-62
2022/06/12 04:49:13;;;;;;;;;3.00;3.00;;;;;20.48;46.96;101867.13;2096332;28;48437;-62
2022/06/12 04:50:15;;;;;;;;;2.50;1.75;;;;;20.46;47.56;101869.03;2105427;27;47391;-62
2022/06/12 04:51:16;;;;;;;;;3.25;2.50;;;;;20.45;47.51;101872.63;2113155;27;48142;-62
2022/06/12 04:52:17;;;;;;;;;5.33;4.00;;;;;20.42;47.00;101864.69;2112670;27;47645;-64
2022/06/12 04:53:17;;;;;;;;;4.50;3.25;;;;;20.41;47.54;101862.03;2112201;27;47278;-63
2022/06/12 04:54:18;;;;;;;;;1.33;1.33;;;;;20.40;47.54;101860.28;2109922;27;47641;-62
2022/06/12 04:55:18;;;;;;;;;3.33;2.33;;;;;20.40;47.65;101861.16;2109765;27;48403;-62
2022/06/12 04:56:22;;;;;;;;;1.67;1.67;;;;;20.39;47.63;101856.72;2112069;27;47989;-62
2022/06/12 04:57:24;;;;;;;;;6.50;4.00;;;;;20.39;47.18;101863.91;2113295;27;47992;-62
2022/06/12 04:58:25;;;;;;;;;2.50;2.25;;;;;20.38;47.42;101857.66;2111779;27;48026;-62
2022/06/12 04:59:26;;;;;;;;;3.00;3.00;;;;;20.38;47.50;101854.09;2112566;27;47413;-61
2022/06/12 05:00:27;;;;;;;;;7.75;5.00;;;;;20.36;47.58;101862.25;2108550;27;47958;-64
2022/06/12 05:01:28;;;;;;;;;2.00;2.00;;;;;20.36;47.81;101866.75;2104466;28;47057;-63
2022/06/12 05:02:29;;;;;;;;;3.00;3.00;;;;;20.35;47.59;101862.31;2104513;28;47860;-60
2022/06/12 05:03:29;;;;;;;;;3.33;2.67;;;;;20.35;47.97;101862.31;2086420;28;47770;-64
2022/06/12 05:04:30;;;;;;;;;3.67;2.00;;;;;20.33;47.58;101856.09;2085847;28;47385;-63
2022/06/12 05:05:31;;;;;;;;;5.67;3.33;;;;;20.31;48.13;101864.25;2104504;28;47753;-61
2022/06/12 05:06:33;;;;;;;;;3.00;3.00;;;;;20.31;48.04;101858.84;2086174;28;47393;-59
2022/06/12 05:07:34;;;;;;;;;3.25;2.00;;;;;20.31;48.09;101855.28;2087166;28;47926;-63
2022/06/12 05:08:34;;;;;;;;;4.67;4.00;;;;;20.31;48.06;101861.53;2104406;27;47631;-63
2022/06/12 05:09:39;;;;;;;;;3.00;1.67;;;;;20.31;48.21;101866.06;2104494;27;47933;-63
2022/06/12 05:10:40;;;;;;;;;4.50;4.50;;;;;20.31;47.68;101858.84;2104413;28;47742;-61
2022/06/12 05:11:42;;;;;;;;;6.25;3.75;;;;;20.30;47.79;101859.78;2102661;28;47996;-62
2022/06/12 05:12:43;;;;;;;;;4.50;3.00;;;;;20.32;47.90;101859.72;2096072;28;47905;-62
2022/06/12 05:13:43;;;;;;;;;1.33;1.33;;;;;20.33;48.29;101858.78;2095688;28;47696;-61
2022/06/12 05:14:44;;;;;;;;;4.00;2.33;;;;;20.33;47.71;101859.69;2096547;28;47858;-63
2022/06/12 05:15:46;;;;;;;;;1.00;1.00;;;;;20.35;48.21;101859.63;2104704;28;47903;-62
2022/06/12 05:17:03;;;;;;;;;3.00;3.00;;;;;20.35;48.04;101854.22;2101732;28;47754;-63
2022/06/12 05:18:04;;;;;;;;;2.25;2.25;;;;;20.34;47.83;101861.44;2104485;28;47811;-62
2022/06/12 05:19:09;;;;;;;;;1.75;1.75;;;;;20.36;47.95;101858.66;2104753;28;47533;-62
2022/06/12 05:20:25;;;;;;;;;3.00;3.00;;;;;20.36;47.81;101855.97;2099002;28;47724;-63
2022/06/12 05:21:28;;;;;;;;;4.50;2.75;;;;;20.35;48.22;101856.91;2092339;28;48030;-62
2022/06/12 05:22:29;;;;;;;;;4.25;4.25;;;;;20.36;48.06;101853.28;2089554;28;47605;-61
2022/06/12 05:23:29;;;;;;;;;3.00;2.00;;;;;20.37;48.15;101849.63;2103523;28;47727;-63
2022/06/12 05:24:31;;;;;;;;;1.67;1.33;;;;;20.37;47.78;101844.25;2104292;28;47357;-62
2022/06/12 05:25:32;;;;;;;;;1.50;1.50;;;;;20.36;48.03;101847.88;2104435;28;47832;-63
2022/06/12 05:26:33;;;;;;;;;3.00;1.50;;;;;20.35;47.87;101847.00;2104379;28;48078;-63